Time;durP1;ratioP1;P1;durP2;ratioP2;P2;SDS_P1;SDS_P2;PMS_P1;PMS_P2;Temp;Humidity;BMP_temperature;BMP_pressure;BME280_temperature;BME280_humidity;BME280_pressure;Samples;Min_cycle;Max_cycle;Signal;HPM_P1;HPM_P2
2021/03/18 00:01:30;;;;;;;7.10;2.30;;;;;;;2.31;81.04;102867.22;5095064;28;20495;-40
2021/03/18 00:03:56;;;;;;;7.60;2.37;;;;;;;2.26;81.10;102858.75;5095723;28;20032;-40
2021/03/18 00:06:21;;;;;;;5.80;2.50;;;;;;;2.20;81.40;102859.28;5095630;28;20481;-40
2021/03/18 00:08:47;;;;;;;7.57;2.80;;;;;;;2.24;81.17;102866.03;5094966;28;20038;-40
2021/03/18 00:11:16;;;;;;;9.18;3.05;;;;;;;2.24;81.44;102859.84;5095247;28;20448;-40
2021/03/18 00:13:42;;;;;;;5.40;2.53;;;;;;;2.27;81.43;102857.78;5095383;28;20032;-40
2021/03/18 00:16:08;;;;;;;;;;;;;;;2.34;80.97;102858.09;5076984;28;20044;-40
2021/03/18 00:18:46;;;;;;;5.22;1.80;;;;;;;2.18;81.56;102866.53;5094925;28;20006;-40
2021/03/18 00:21:12;;;;;;;9.00;2.53;;;;;;;2.14;81.35;102857.09;5095324;28;20026;-40
2021/03/18 00:23:38;;;;;;;5.38;2.05;;;;;;;2.20;81.39;102858.44;5094704;28;20043;-40
2021/03/18 00:26:04;;;;;;;6.90;2.35;;;;;;;2.22;81.62;102846.63;5094718;28;20028;-40
2021/03/18 00:28:30;;;;;;;9.88;2.45;;;;;;;2.21;81.29;102850.28;5094326;28;20031;-40
2021/03/18 00:30:56;;;;;;;7.63;2.17;;;;;;;2.15;81.47;102849.91;5094545;28;20027;-40
2021/03/18 00:33:22;;;;;;;6.38;2.30;;;;;;;2.14;81.61;102846.41;5094217;28;20016;-40
2021/03/18 00:35:48;;;;;;;9.82;2.53;;;;;;;2.10;81.73;102847.66;5094755;28;20024;-40
2021/03/18 00:38:14;;;;;;;7.15;2.33;;;;;;;2.15;81.73;102847.25;5094896;28;20028;-41
2021/03/18 00:40:42;;;;;;;6.78;2.08;;;;;;;2.15;81.21;102850.78;5095002;28;20028;-40
2021/03/18 00:43:11;;;;;;;5.65;1.98;;;;;;;2.19;82.31;102841.53;5093125;28;20024;-40
2021/03/18 00:45:38;;;;;;;5.80;2.22;;;;;;;2.20;81.42;102851.25;5094579;28;20028;-40
2021/03/18 00:48:06;;;;;;;9.23;2.30;;;;;;;2.12;80.58;102853.72;5094183;28;20032;-40
2021/03/18 00:50:37;;;;;;;7.68;2.17;;;;;;;2.08;81.55;102851.41;5094638;28;20381;-40
2021/03/18 00:53:04;;;;;;;6.15;1.90;;;;;;;2.05;81.39;102853.38;5094641;28;20111;-40
2021/03/18 00:55:30;;;;;;;7.68;2.50;;;;;;;2.00;81.17;102855.56;5093768;28;20107;-40
2021/03/18 00:57:56;;;;;;;9.68;2.42;;;;;;;2.00;81.11;102862.69;5094028;28;20158;-40
2021/03/18 01:00:37;;;;;;;7.25;2.08;;;;;;;1.93;81.42;102864.19;5093841;28;20165;-40
2021/03/18 01:03:04;;;;;;;8.85;2.20;;;;;;;1.95;82.08;102863.09;5094239;28;20016;-40
2021/03/18 01:05:34;;;;;;;4.00;1.92;;;;;;;1.92;81.90;102862.50;5094546;28;20034;-40
2021/03/18 01:08:00;;;;;;;8.63;2.10;;;;;;;1.95;81.73;102860.44;5093677;28;20085;-40
2021/03/18 01:10:29;;;;;;;8.82;2.38;;;;;;;1.89;81.66;102850.25;5094749;28;20368;-40
2021/03/18 01:12:55;;;;;;;7.82;2.17;;;;;;;1.88;81.89;102861.06;5094034;28;20028;-40
2021/03/18 01:15:25;;;;;;;6.78;1.80;;;;;;;1.89;82.28;102857.41;5093553;28;20105;-40
2021/03/18 01:17:50;;;;;;;5.32;2.10;;;;;;;1.92;82.14;102851.84;5093461;28;20069;-40
2021/03/18 01:20:18;;;;;;;9.33;2.33;;;;;;;1.88;81.41;102861.06;5094097;28;20521;-40
2021/03/18 01:22:43;;;;;;;4.45;2.22;;;;;;;1.87;81.54;102865.53;5093951;28;20081;-40
2021/03/18 01:25:09;;;;;;;8.43;2.07;;;;;;;1.88;81.76;102863.72;5094081;28;20460;-40
2021/03/18 01:27:35;;;;;;;5.18;1.80;;;;;;;1.80;82.10;102870.50;5093958;28;20028;-40
2021/03/18 01:30:01;;;;;;;;;;;;;;;1.93;81.21;102861.53;5094411;28;20073;-40
2021/03/18 01:32:26;;;;;;;7.10;1.98;;;;;;;1.72;81.72;102862.28;5093335;28;19998;-40
2021/03/18 01:34:51;;;;;;;7.17;2.00;;;;;;;1.73;81.48;102865.81;5093677;28;20573;-40
2021/03/18 01:37:17;;;;;;;6.33;1.90;;;;;;;1.74;82.31;102859.50;5093622;28;20553;-40
2021/03/18 01:39:42;;;;;;;10.67;1.90;;;;;;;1.80;82.18;102865.16;5094143;28;20394;-40
2021/03/18 01:42:07;;;;;;;11.97;2.47;;;;;;;1.80;82.42;102867.00;5093793;28;20032;-40
2021/03/18 01:44:33;;;;;;;7.00;2.30;;;;;;;1.73;82.01;102866.66;5093554;28;20482;-40
2021/03/18 01:46:58;;;;;;;6.90;2.10;;;;;;;1.78;81.66;102867.13;5093543;28;20028;-40
2021/03/18 01:49:24;;;;;;;6.60;2.27;;;;;;;1.79;82.30;102866.16;5093812;28;20077;-40
2021/03/18 01:51:49;;;;;;;8.30;2.43;;;;;;;1.84;82.02;102859.59;5093446;28;20039;-40
2021/03/18 01:54:15;;;;;;;5.20;2.17;;;;;;;1.75;81.88;102851.34;5092509;28;20043;-40
2021/03/18 01:56:41;;;;;;;7.40;2.17;;;;;;;1.78;81.73;102851.13;5093316;28;20126;-40
2021/03/18 01:59:06;;;;;;;10.53;2.20;;;;;;;1.72;81.58;102853.44;5093691;28;20111;-40
2021/03/18 02:01:31;;;;;;;8.77;2.43;;;;;;;1.79;82.26;102850.16;5093669;28;20568;-40
2021/03/18 02:03:57;;;;;;;7.43;2.37;;;;;;;1.77;82.49;102835.25;5093721;28;20028;-40
2021/03/18 02:06:22;;;;;;;10.50;3.47;;;;;;;1.78;81.64;102826.28;5094162;28;20024;-40
2021/03/18 02:08:48;;;;;;;6.47;2.03;;;;;;;1.74;82.14;102831.00;5097247;28;20103;-40
2021/03/18 02:11:13;;;;;;;7.20;1.97;;;;;;;1.70;81.45;102832.22;5097574;28;20035;-40
2021/03/18 02:13:39;;;;;;;8.20;2.33;;;;;;;1.65;82.08;102823.75;5097168;28;20548;-40
2021/03/18 02:16:07;;;;;;;7.50;2.27;;;;;;;1.72;81.87;102830.28;5097575;28;20048;-40
2021/03/18 02:18:35;;;;;;;4.90;2.15;;;;;;;1.72;82.40;102832.13;5097312;28;20414;-40
2021/03/18 02:21:06;;;;;;;5.35;1.92;;;;;;;1.71;82.72;102827.75;5097296;28;20487;-40
2021/03/18 02:23:50;;;;;;;6.47;2.00;;;;;;;1.66;82.24;102824.59;5097461;28;20028;-40
2021/03/18 02:26:33;;;;;;;4.60;1.52;;;;;;;1.69;82.32;102824.34;5097262;28;20024;-40
2021/03/18 02:29:35;;;;;;;6.05;1.85;;;;;;;1.72;82.01;102822.28;5097159;28;20357;-40
2021/03/18 02:32:56;;;;;;;6.95;2.20;;;;;;;1.71;82.29;102812.59;5096556;28;20024;-40
2021/03/18 02:35:27;;;;;;;7.07;2.15;;;;;;;1.74;82.61;102822.16;5054340;28;20595;-40
2021/03/18 02:38:23;;;;;;;5.38;1.95;;;;;;;1.75;82.05;102814.00;5053940;28;20029;-40
2021/03/18 02:40:57;;;;;;;6.70;2.47;;;;;;;1.65;82.07;102812.22;5053196;28;20037;-40
2021/03/18 02:43:24;;;;;;;7.55;2.03;;;;;;;1.60;81.64;102820.59;5054088;28;20056;-40
2021/03/18 02:45:57;;;;;;;8.85;2.63;;;;;;;1.66;82.57;102817.47;5054151;28;20025;-40
2021/03/18 02:48:26;;;;;;;6.55;2.00;;;;;;;1.62;82.61;102797.34;5054457;28;20504;-40
2021/03/18 02:50:52;;;;;;;13.23;2.10;;;;;;;1.65;82.59;102802.41;5054164;28;20116;-40
2021/03/18 02:53:20;;;;;;;4.63;2.13;;;;;;;1.60;82.62;102793.94;5053874;28;20037;-40
2021/03/18 02:55:49;;;;;;;9.40;2.08;;;;;;;1.68;82.08;102785.31;5053832;28;20029;-41
2021/03/18 02:58:20;;;;;;;11.05;2.10;;;;;;;1.72;82.88;102776.94;5053637;28;20040;-40
2021/03/18 03:00:47;;;;;;;6.88;2.05;;;;;;;1.72;82.40;102765.44;5053933;28;20079;-40
2021/03/18 03:03:15;;;;;;;6.47;2.10;;;;;;;1.76;82.69;102766.88;5054443;28;20039;-40
2021/03/18 03:05:42;;;;;;;7.35;1.73;;;;;;;1.74;82.05;102779.47;5068158;28;20044;-40
2021/03/18 03:08:09;;;;;;;6.97;2.10;;;;;;;1.62;81.72;102769.81;5095875;28;20460;-40
2021/03/18 03:10:35;;;;;;;8.10;2.08;;;;;;;1.60;82.55;102783.25;5097005;28;20024;-40
2021/03/18 03:13:01;;;;;;;;;;;;;;;1.72;82.43;102778.75;5096450;28;20024;-40
2021/03/18 03:15:29;;;;;;;9.63;3.08;;;;;;;1.63;82.43;102783.03;5095997;28;19969;-40
2021/03/18 03:17:58;;;;;;;7.50;2.00;;;;;;;1.62;83.01;102792.00;5095744;28;20058;-40
2021/03/18 03:20:24;;;;;;;9.15;2.30;;;;;;;1.63;82.91;102798.19;5096218;28;20024;-40
2021/03/18 03:22:50;;;;;;;7.10;1.95;;;;;;;1.68;83.17;102788.84;5095862;28;20034;-40
2021/03/18 03:25:17;;;;;;;6.13;1.70;;;;;;;1.66;82.85;102785.44;5096705;28;20028;-40
2021/03/18 03:27:45;;;;;;;6.72;2.00;;;;;;;1.66;83.18;102777.44;5096366;28;20024;-40
2021/03/18 03:30:11;;;;;;;8.13;1.95;;;;;;;1.58;82.68;102782.56;5096322;28;20032;-40
2021/03/18 03:32:37;;;;;;;;;;;;;;;1.66;82.46;102792.59;5095981;28;20077;-40
2021/03/18 03:35:05;;;;;;;7.60;2.13;;;;;;;1.51;82.60;102792.00;5095723;28;19907;-40
2021/03/18 03:37:30;;;;;;;7.05;2.10;;;;;;;1.48;82.67;102781.59;5095798;28;20074;-40
2021/03/18 03:39:56;;;;;;;5.20;2.10;;;;;;;1.50;82.95;102785.81;5095585;28;20032;-40
2021/03/18 03:42:21;;;;;;;6.87;2.20;;;;;;;1.45;82.38;102793.34;5095519;28;20043;-40
2021/03/18 03:44:47;;;;;;;6.33;1.97;;;;;;;1.45;82.93;102789.84;5096338;28;20020;-40
2021/03/18 03:47:12;;;;;;;5.85;2.05;;;;;;;1.41;83.10;102780.38;5095140;28;20472;-40
2021/03/18 03:49:39;;;;;;;9.50;2.63;;;;;;;1.47;83.34;102777.25;5095371;28;20054;-41
2021/03/18 03:52:04;;;;;;;;;;;;;;;1.56;82.41;102779.16;5095760;28;20119;-40
2021/03/18 03:54:31;;;;;;;5.23;1.70;;;;;;;1.52;83.51;102777.72;5095384;28;20368;-40
2021/03/18 03:57:03;;;;;;;8.80;1.90;;;;;;;1.44;83.28;102783.66;5095220;28;20035;-40
2021/03/18 03:59:34;;;;;;;7.95;1.88;;;;;;;1.43;82.86;102789.97;5095656;28;20028;-40
2021/03/18 04:02:02;;;;;;;6.72;2.03;;;;;;;1.42;82.99;102795.44;5095165;28;20024;-40
2021/03/18 04:04:36;;;;;;;8.43;2.22;;;;;;;1.36;82.69;102794.09;5095400;28;20039;-40
2021/03/18 04:07:07;;;;;;;7.70;2.50;;;;;;;1.34;83.68;102798.72;5094764;28;20040;-40
2021/03/18 04:09:33;;;;;;;6.88;2.20;;;;;;;1.33;83.43;102786.34;5095021;28;20110;-40
2021/03/18 04:12:01;;;;;;;5.85;2.03;;;;;;;1.31;83.43;102768.78;5094961;28;20024;-40
2021/03/18 04:14:31;;;;;;;6.05;2.25;;;;;;;1.31;84.01;102750.13;5094959;28;20103;-40
2021/03/18 04:16:59;;;;;;;5.70;2.20;;;;;;;1.28;83.34;102768.06;5095443;28;20048;-40
2021/03/18 04:19:26;;;;;;;7.97;2.42;;;;;;;1.20;82.44;102764.31;5094726;28;20164;-40
2021/03/18 04:21:53;;;;;;;5.82;2.03;;;;;;;1.19;82.65;102754.63;5094972;28;20032;-40
2021/03/18 04:24:21;;;;;;;5.35;2.05;;;;;;;1.21;83.65;102755.34;5095295;28;20020;-40
2021/03/18 04:26:47;;;;;;;10.40;2.33;;;;;;;1.17;83.51;102749.44;5093366;28;20023;-40
2021/03/18 04:29:14;;;;;;;7.80;2.55;;;;;;;1.07;81.86;102750.25;5095005;28;20471;-40
2021/03/18 04:31:42;;;;;;;5.70;1.98;;;;;;;1.00;82.40;102741.94;5094207;28;20503;-40
2021/03/18 04:34:10;;;;;;;6.72;2.47;;;;;;;0.96;82.84;102756.44;5094617;28;20028;-40
2021/03/18 04:36:36;;;;;;;5.68;2.10;;;;;;;0.99;83.25;102749.06;5094411;28;20084;-40
2021/03/18 04:39:03;;;;;;;;;;;;;;;1.10;83.00;102742.88;5094859;28;20064;-40
2021/03/18 04:41:28;;;;;;;8.45;2.35;;;;;;;1.02;83.37;102734.66;5094168;28;19965;-41
2021/03/18 04:43:55;;;;;;;7.00;2.60;;;;;;;0.94;83.26;102731.75;5094652;28;20106;-41
2021/03/18 04:46:23;;;;;;;9.48;2.55;;;;;;;0.89;83.20;102734.78;5094558;28;20028;-41
2021/03/18 04:48:52;;;;;;;4.95;2.20;;;;;;;0.84;83.33;102741.44;5093944;28;20460;-41
2021/03/18 04:51:17;;;;;;;7.75;2.38;;;;;;;0.80;82.97;102730.19;5094806;28;20035;-40
2021/03/18 04:53:43;;;;;;;5.03;2.50;;;;;;;0.86;83.81;102744.84;5094222;28;20032;-41
2021/03/18 04:56:09;;;;;;;6.30;2.53;;;;;;;0.91;83.48;102737.31;5094258;28;20050;-41
2021/03/18 04:58:36;;;;;;;4.63;2.70;;;;;;;0.86;82.94;102735.03;5094047;28;20045;-40
2021/03/18 05:01:02;;;;;;;6.10;2.60;;;;;;;0.86;83.27;102750.16;5094088;28;20061;-41
2021/03/18 05:03:28;;;;;;;10.63;3.63;;;;;;;0.84;83.00;102738.78;5093737;28;20085;-40
2021/03/18 05:05:57;;;;;;;10.52;3.33;;;;;;;0.87;82.95;102751.84;5093815;28;20024;-40
2021/03/18 05:08:24;;;;;;;10.20;3.92;;;;;;;0.87;83.06;102757.16;5093610;28;20024;-40
2021/03/18 05:10:50;;;;;;;11.35;3.67;;;;;;;0.87;84.08;102754.50;5094181;28;20032;-40
2021/03/18 05:13:16;;;;;;;8.23;3.58;;;;;;;0.83;84.04;102756.59;5092828;28;20050;-40
2021/03/18 05:15:42;;;;;;;10.05;3.13;;;;;;;0.89;84.51;102748.09;5094330;28;20404;-40
2021/03/18 05:18:10;;;;;;;16.35;4.10;;;;;;;0.93;83.88;102735.41;5093720;28;20032;-41
2021/03/18 05:20:36;;;;;;;7.32;3.47;;;;;;;0.87;83.50;102741.19;5094380;28;20085;-40
2021/03/18 05:23:02;;;;;;;8.80;3.38;;;;;;;0.92;84.25;102729.19;5094006;28;20364;-40
2021/03/18 05:25:30;;;;;;;10.95;3.80;;;;;;;0.96;84.69;102727.16;5094288;28;20052;-40
2021/03/18 05:27:57;;;;;;;10.52;3.88;;;;;;;0.93;84.24;102730.06;5093632;28;20078;-40
2021/03/18 05:30:23;;;;;;;9.90;3.65;;;;;;;0.95;84.16;102722.78;5094197;28;20428;-40
2021/03/18 05:32:49;;;;;;;7.85;3.50;;;;;;;1.04;84.53;102727.41;5094161;28;20031;-40
2021/03/18 05:35:14;;;;;;;8.07;3.93;;;;;;;1.06;84.09;102725.44;5093969;28;20114;-41
2021/03/18 05:37:41;;;;;;;9.50;4.03;;;;;;;1.03;84.32;102720.38;5093605;28;20459;-41
2021/03/18 05:40:10;;;;;;;12.77;3.90;;;;;;;1.10;84.39;102726.06;5093086;28;20063;-41
2021/03/18 05:42:36;;;;;;;9.20;3.95;;;;;;;1.12;84.01;102724.94;5095215;28;20017;-40
2021/03/18 05:45:05;;;;;;;7.88;3.60;;;;;;;1.14;83.98;102731.00;5097724;28;20393;-40
2021/03/18 05:47:31;;;;;;;10.02;3.83;;;;;;;1.18;84.19;102728.97;5097666;28;20111;-40
2021/03/18 05:49:58;;;;;;;8.45;3.70;;;;;;;1.17;84.51;102725.44;5098555;28;20028;-40
2021/03/18 05:52:25;;;;;;;8.02;4.63;;;;;;;1.12;84.27;102718.78;5098424;28;20035;-40
2021/03/18 05:54:52;;;;;;;13.80;4.15;;;;;;;1.22;84.76;102717.94;5096722;28;20423;-41
2021/03/18 05:57:18;;;;;;;7.63;4.05;;;;;;;1.28;85.34;102719.25;5097849;28;20031;-41
2021/03/18 05:59:45;;;;;;;10.55;4.35;;;;;;;1.28;85.03;102709.44;5098251;28;20036;-40
2021/03/18 06:02:12;;;;;;;9.18;3.65;;;;;;;1.33;85.58;102702.88;5097674;28;20390;-41
2021/03/18 06:04:38;;;;;;;11.32;4.25;;;;;;;1.21;84.52;102700.22;5097430;28;20480;-40
2021/03/18 06:07:05;;;;;;;13.05;4.00;;;;;;;1.24;84.88;102699.13;5096165;28;20423;-40
2021/03/18 06:09:32;;;;;;;13.40;4.28;;;;;;;1.28;85.43;102698.75;5097739;28;20078;-41
2021/03/18 06:11:57;;;;;;;12.32;4.03;;;;;;;1.26;84.97;102690.03;5097058;28;20028;-41
2021/03/18 06:14:23;;;;;;;10.88;4.75;;;;;;;1.28;84.50;102693.44;5097381;28;20034;-40
2021/03/18 06:16:49;;;;;;;11.10;4.73;;;;;;;1.21;84.98;102692.22;5096898;28;20444;-40
2021/03/18 06:19:15;;;;;;;10.00;4.65;;;;;;;1.31;84.95;102692.31;5096729;28;20074;-40
2021/03/18 06:21:51;;;;;;;7.45;3.95;;;;;;;1.31;84.23;102689.66;5096935;28;20036;-40
2021/03/18 06:24:18;;;;;;;12.85;5.05;;;;;;;1.38;84.91;102698.88;5097406;28;20078;-40
2021/03/18 06:26:44;;;;;;;12.20;4.32;;;;;;;1.41;84.80;102687.09;5096523;28;20024;-40
2021/03/18 06:29:33;;;;;;;10.45;4.85;;;;;;;1.42;84.61;102683.47;5096992;28;20468;-40
2021/03/18 06:32:13;;;;;;;9.02;4.05;;;;;;;1.46;84.89;102682.22;5096827;28;20465;-39
2021/03/18 06:34:49;;;;;;;11.60;4.68;;;;;;;1.60;86.15;102676.59;5097257;28;20016;-40
2021/03/18 06:37:36;;;;;;;16.50;5.68;;;;;;;1.57;84.57;102655.53;5096443;28;20024;-39
2021/03/18 06:40:16;;;;;;;17.88;6.97;;;;;;;1.46;85.41;102658.22;5096975;28;20402;-40
2021/03/18 06:42:52;;;;;;;15.85;5.80;;;;;;;1.43;85.47;102667.34;5096337;28;20541;-40
2021/03/18 06:45:17;;;;;;;15.40;5.35;;;;;;;1.47;85.57;102658.13;5096449;28;20103;-40
2021/03/18 06:47:52;;;;;;;12.97;5.30;;;;;;;1.48;85.34;102662.47;5097214;28;20063;-41
2021/03/18 06:50:21;;;;;;;13.93;5.18;;;;;;;1.54;85.96;102661.13;5097113;28;20418;-41
2021/03/18 06:52:47;;;;;;;12.20;5.25;;;;;;;1.48;85.94;102651.81;5096447;28;20043;-41
2021/03/18 06:55:24;;;;;;;12.02;4.35;;;;;;;1.57;85.96;102652.88;5097050;28;20040;-41
2021/03/18 06:58:09;;;;;;;13.93;5.32;;;;;;;1.47;85.57;102662.59;5096627;28;20387;-39
2021/03/18 07:00:35;;;;;;;12.63;5.15;;;;;;;1.51;85.03;102664.03;5095934;28;20476;-39
2021/03/18 07:03:01;;;;;;;10.60;5.07;;;;;;;1.59;86.08;102661.56;5097109;28;20028;-40
2021/03/18 07:05:26;;;;;;;11.13;5.13;;;;;;;1.64;85.88;102651.38;5096125;28;20479;-41
2021/03/18 07:07:52;;;;;;;13.57;5.20;;;;;;;1.73;85.51;102645.25;5095869;28;20024;-41
2021/03/18 07:10:34;;;;;;;12.23;5.60;;;;;;;1.77;85.24;102644.03;5097003;28;20028;-41
2021/03/18 07:13:22;;;;;;;14.10;5.75;;;;;;;1.89;85.90;102644.81;5096957;28;20415;-40
2021/03/18 07:15:48;;;;;;;;;;;;;;;1.96;84.88;102640.66;5096908;28;20044;-41
2021/03/18 07:18:14;;;;;;;9.82;5.00;;;;;;;1.92;84.97;102646.38;5096024;28;19916;-40
2021/03/18 07:21:01;;;;;;;10.90;5.32;;;;;;;2.02;84.98;102641.97;5095928;28;20024;-40
2021/03/18 07:23:40;;;;;;;;;;;;;;;2.10;84.62;102658.16;5097512;28;20032;-40
2021/03/18 07:26:37;;;;;;;12.05;5.18;;;;;;;2.08;85.02;102646.75;5095860;28;19912;-41
2021/03/18 07:29:16;;;;;;;10.52;5.10;;;;;;;2.06;85.16;102641.56;5095076;28;20044;-40
2021/03/18 07:31:41;;;;;;;14.48;6.30;;;;;;;2.09;84.53;102631.59;5096128;28;20024;-40
2021/03/18 07:34:08;;;;;;;13.47;5.57;;;;;;;2.14;85.54;102640.03;5096186;28;20032;-40
2021/03/18 07:36:33;;;;;;;18.17;6.10;;;;;;;2.15;85.17;102629.25;5095677;28;20074;-40
2021/03/18 07:38:59;;;;;;;12.93;5.67;;;;;;;2.20;85.56;102616.38;5094800;28;20535;-40
2021/03/18 07:41:25;;;;;;;13.27;5.53;;;;;;;2.28;85.33;102621.03;5095903;28;20602;-40
2021/03/18 07:43:52;;;;;;;10.98;5.22;;;;;;;2.36;85.38;102626.53;5094756;28;20107;-40
2021/03/18 07:46:18;;;;;;;;;;;;;;;2.47;84.38;102620.25;5096190;28;20425;-40
2021/03/18 07:48:46;;;;;;;12.75;6.22;;;;;;;2.46;85.08;102621.25;5095341;28;20379;-40
2021/03/18 07:51:13;;;;;;;13.70;5.85;;;;;;;2.53;85.08;102625.06;5095611;28;20024;-41
2021/03/18 07:53:40;;;;;;;10.32;5.65;;;;;;;2.58;84.73;102625.50;5095862;28;20020;-41
2021/03/18 07:56:11;;;;;;;11.00;5.90;;;;;;;2.61;84.77;102625.25;5095605;28;20055;-40
2021/03/18 07:58:44;;;;;;;14.38;5.28;;;;;;;2.68;85.20;102642.41;5095973;28;20024;-40
2021/03/18 08:01:27;;;;;;;17.05;5.68;;;;;;;2.77;85.11;102641.59;5095486;28;20115;-41
2021/03/18 08:03:53;;;;;;;13.50;5.55;;;;;;;2.81;84.34;102635.00;5095049;28;20038;-40
2021/03/18 08:06:41;;;;;;;15.10;5.60;;;;;;;2.92;84.59;102631.38;5094624;28;20103;-40
2021/03/18 08:09:12;;;;;;;13.02;5.82;;;;;;;3.01;84.86;102637.72;5094677;28;20032;-40
2021/03/18 08:11:38;;;;;;;11.10;5.13;;;;;;;3.09;84.73;102654.75;5095803;28;20115;-40
2021/03/18 08:14:07;;;;;;;18.30;6.55;;;;;;;3.09;84.04;102668.13;5094948;28;20032;-40
2021/03/18 08:16:33;;;;;;;12.98;5.43;;;;;;;3.16;84.32;102656.88;5095136;28;20126;-41
2021/03/18 08:19:00;;;;;;;11.75;5.18;;;;;;;3.25;84.23;102648.03;5094704;28;20032;-40
2021/03/18 08:21:43;;;;;;;14.75;5.20;;;;;;;3.30;84.64;102654.66;5095292;28;20465;-40
2021/03/18 08:24:29;;;;;;;9.68;4.65;;;;;;;3.38;84.03;102650.44;5094967;28;20027;-40
2021/03/18 08:27:04;;;;;;;13.10;5.05;;;;;;;3.46;83.89;102655.94;5094667;28;20044;-40
2021/03/18 08:29:32;;;;;;;14.85;5.40;;;;;;;3.47;83.83;102655.81;5094626;28;20131;-40
2021/03/18 08:32:03;;;;;;;10.93;4.47;;;;;;;3.48;83.86;102657.50;5094325;28;20024;-40
2021/03/18 08:34:43;;;;;;;16.05;5.00;;;;;;;3.56;83.88;102652.28;5094861;28;20484;-40
2021/03/18 08:37:10;;;;;;;10.38;4.95;;;;;;;3.64;83.71;102646.22;5094835;28;20058;-40
2021/03/18 08:39:50;;;;;;;13.45;5.43;;;;;;;3.75;83.22;102638.03;5094188;28;20024;-40
2021/03/18 08:42:28;;;;;;;12.50;4.95;;;;;;;3.82;83.38;102639.16;5093144;28;20395;-40
2021/03/18 08:44:54;;;;;;;15.13;5.13;;;;;;;3.87;83.42;102641.41;5094364;28;20028;-40
2021/03/18 08:47:20;;;;;;;13.68;4.57;;;;;;;3.95;83.04;102643.38;5094314;28;20455;-40
2021/03/18 08:49:46;;;;;;;12.00;4.50;;;;;;;4.02;82.88;102644.50;5094332;28;20085;-40
2021/03/18 08:52:19;;;;;;;14.05;4.78;;;;;;;4.05;82.51;102641.50;5094156;28;20266;-40
2021/03/18 08:54:49;;;;;;;13.88;4.90;;;;;;;4.11;82.42;102652.50;5093910;28;20031;-40
2021/03/18 08:57:20;;;;;;;11.77;4.30;;;;;;;4.20;83.23;102642.78;5094631;28;20385;-40
2021/03/18 08:59:50;;;;;;;12.20;4.80;;;;;;;4.24;82.79;102640.63;5094037;28;20465;-40
2021/03/18 09:02:17;;;;;;;10.88;4.35;;;;;;;4.24;81.57;102633.44;5094735;28;20423;-40
2021/03/18 09:04:45;;;;;;;12.27;4.60;;;;;;;4.34;81.54;102638.75;5094606;28;20034;-40
2021/03/18 09:07:13;;;;;;;10.60;4.30;;;;;;;4.46;82.25;102639.44;5093867;28;20038;-40
2021/03/18 09:09:39;;;;;;;19.38;4.53;;;;;;;4.53;81.95;102640.53;5093695;28;20472;-41
2021/03/18 09:12:07;;;;;;;12.88;4.35;;;;;;;4.55;81.76;102651.94;5093892;28;20035;-40
2021/03/18 09:14:32;;;;;;;13.50;4.15;;;;;;;4.55;81.04;102638.56;5093497;28;20032;-40
2021/03/18 09:17:13;;;;;;;14.73;5.13;;;;;;;4.71;82.20;102648.63;5092752;28;20047;-40
2021/03/18 09:19:45;;;;;;;10.60;4.40;;;;;;;4.72;80.88;102643.13;5093928;28;20414;-40
2021/03/18 09:22:14;;;;;;;12.88;5.10;;;;;;;4.75;81.22;102634.78;5093983;28;20161;-40
2021/03/18 09:24:44;;;;;;;11.10;4.53;;;;;;;4.82;81.42;102640.38;5094240;28;20103;-40
2021/03/18 09:27:13;;;;;;;14.10;4.88;;;;;;;4.80;80.63;102635.19;5093911;28;20028;-40
2021/03/18 09:29:40;;;;;;;17.05;5.65;;;;;;;4.85;80.53;102634.75;5094268;28;20024;-40
2021/03/18 09:32:07;;;;;;;16.73;5.53;;;;;;;4.89;81.04;102626.25;5094213;28;20360;-40
2021/03/18 09:34:34;;;;;;;18.33;5.70;;;;;;;4.98;81.21;102637.03;5093332;28;20035;-40
2021/03/18 09:36:59;;;;;;;11.52;5.38;;;;;;;5.04;80.31;102625.75;5093520;28;20040;-40
2021/03/18 09:39:25;;;;;;;13.68;4.25;;;;;;;5.11;80.87;102616.91;5093522;28;20031;-40
2021/03/18 09:41:51;;;;;;;17.83;4.90;;;;;;;5.15;79.68;102620.16;5093792;28;20508;-40
2021/03/18 09:44:20;;;;;;;18.38;5.55;;;;;;;5.18;81.14;102614.50;5094373;28;20411;-40
2021/03/18 09:46:51;;;;;;;16.67;5.55;;;;;;;5.28;80.95;102615.25;5093417;28;20024;-40
2021/03/18 09:49:30;;;;;;;13.20;5.70;;;;;;;5.31;80.44;102606.88;5093502;28;20039;-40
2021/03/18 09:51:55;;;;;;;16.27;5.53;;;;;;;5.37;79.82;102606.28;5094310;28;20069;-40
2021/03/18 09:54:25;;;;;;;12.93;4.50;;;;;;;5.46;79.90;102609.03;5093687;28;20589;-40
2021/03/18 09:56:51;;;;;;;11.40;4.97;;;;;;;5.49;80.23;102603.38;5093547;28;20107;-40
2021/03/18 09:59:17;;;;;;;;;;;;;;;5.61;80.53;102597.63;5094036;28;20358;-40
2021/03/18 10:01:43;;;;;;;13.35;4.75;;;;;;;5.54;79.74;102603.75;5093321;28;19954;-40
2021/03/18 10:04:12;;;;;;;14.20;5.20;;;;;;;5.53;80.50;102602.06;5093276;28;20038;-40
2021/03/18 10:06:56;;;;;;;16.15;5.07;;;;;;;5.53;79.86;102589.50;5093273;28;20093;-40
2021/03/18 10:09:26;;;;;;;13.88;5.57;;;;;;;5.48;80.26;102594.47;5093560;28;20118;-40
2021/03/18 10:11:54;;;;;;;17.95;5.88;;;;;;;5.41;79.63;102586.19;5093474;28;20027;-40
2021/03/18 10:14:27;;;;;;;13.63;4.72;;;;;;;5.38;79.22;102599.94;5093504;28;20036;-40
2021/03/18 10:16:53;;;;;;;15.88;5.50;;;;;;;5.32;79.52;102595.19;5093784;28;20487;-40
2021/03/18 10:19:19;;;;;;;;;;;;;;;5.38;79.61;102581.16;5093528;28;20104;-40
2021/03/18 10:21:46;;;;;;;15.93;5.38;;;;;;;5.25;79.85;102578.00;5093209;28;19919;-40
2021/03/18 10:24:13;;;;;;;18.33;5.32;;;;;;;5.21;79.91;102589.19;5093438;28;20039;-41
2021/03/18 10:26:38;;;;;;;15.95;5.43;;;;;;;5.19;79.72;102581.31;5092840;28;20029;-40
2021/03/18 10:29:05;;;;;;;17.00;4.93;;;;;;;5.14;79.59;102580.91;5095529;28;20048;-40
2021/03/18 10:31:32;;;;;;;21.13;6.63;;;;;;;5.10;79.83;102579.53;5096865;28;20376;-40
2021/03/18 10:33:58;;;;;;;15.52;5.38;;;;;;;5.07;80.39;102574.47;5096582;28;20028;-40
2021/03/18 10:36:37;;;;;;;21.00;6.32;;;;;;;5.07;80.45;102567.25;5097094;28;20024;-40
2021/03/18 10:39:11;;;;;;;14.93;5.30;;;;;;;5.05;80.47;102568.44;5097205;28;20020;-40
2021/03/18 10:41:53;;;;;;;17.70;5.93;;;;;;;5.05;81.02;102569.25;5097221;28;20020;-40
2021/03/18 10:44:32;;;;;;;20.48;5.22;;;;;;;5.01;81.64;102567.03;5096691;28;20039;-40
2021/03/18 10:47:14;;;;;;;17.67;6.13;;;;;;;5.03;82.83;102562.38;5096609;28;20030;-40
2021/03/18 10:49:39;;;;;;;17.20;5.70;;;;;;;4.94;82.73;102560.63;5096862;28;20038;-40
2021/03/18 10:52:07;;;;;;;13.77;5.57;;;;;;;4.96;82.76;102559.44;5096894;28;20414;-40
2021/03/18 10:54:33;;;;;;;16.98;5.95;;;;;;;4.98;83.36;102570.00;5096497;28;20074;-40
2021/03/18 10:57:03;;;;;;;17.33;6.00;;;;;;;4.91;83.65;102562.59;5096407;28;20480;-40
2021/03/18 10:59:29;;;;;;;15.73;5.90;;;;;;;4.93;83.72;102556.22;5097366;28;20024;-40
2021/03/18 11:02:04;;;;;;;17.43;6.03;;;;;;;4.90;84.01;102552.88;5096015;28;20046;-40
2021/03/18 11:04:29;;;;;;;18.02;7.10;;;;;;;4.91;84.80;102554.53;5096303;28;20024;-40
2021/03/18 11:06:55;;;;;;;16.80;6.87;;;;;;;4.91;85.20;102556.38;5095994;28;20476;-40
2021/03/18 11:09:20;;;;;;;17.93;6.30;;;;;;;4.90;84.70;102549.34;5096266;28;20552;-40
2021/03/18 11:11:57;;;;;;;16.40;6.23;;;;;;;4.97;85.06;102545.03;5096137;28;20515;-40
2021/03/18 11:14:23;;;;;;;14.95;6.50;;;;;;;5.06;85.23;102543.28;5096039;28;20052;-40
2021/03/18 11:17:04;;;;;;;17.65;6.82;;;;;;;5.14;84.76;102552.25;5096331;28;20071;-40
2021/03/18 11:19:29;;;;;;;17.27;7.43;;;;;;;5.14;84.08;102549.59;5095858;28;20035;-40
2021/03/18 11:22:03;;;;;;;18.73;7.60;;;;;;;5.19;84.46;102543.75;5095567;28;20028;-40
2021/03/18 11:24:29;;;;;;;19.20;7.72;;;;;;;5.18;84.81;102542.06;5096207;28;20024;-40
2021/03/18 11:26:59;;;;;;;20.53;7.20;;;;;;;5.23;84.24;102542.47;5095818;28;20077;-40
2021/03/18 11:29:27;;;;;;;18.00;7.03;;;;;;;5.26;84.23;102538.59;5096611;28;20028;-40
2021/03/18 11:31:55;;;;;;;19.30;7.05;;;;;;;5.29;84.09;102536.47;5095714;28;20028;-45
2021/03/18 11:34:28;;;;;;;22.17;7.43;;;;;;;5.30;83.81;102529.25;5096278;28;20024;-40
2021/03/18 11:37:00;;;;;;;18.55;7.10;;;;;;;5.36;83.14;102540.19;5096206;28;20155;-40
2021/03/18 11:39:26;;;;;;;18.27;6.90;;;;;;;5.39;83.69;102541.75;5095613;28;20028;-40
2021/03/18 11:41:55;;;;;;;15.77;7.30;;;;;;;5.40;83.69;102549.63;5095717;28;20028;-40